Hlavní strana
METAR-TAF:

METAR-TAF

Letiště :

Letiště Mnichov

Mnichov, Německo

zeměpisná šířka: 48-21N, zeměpisná délka: 011-47E, výška: 453 m

Aktuální stav počasí

Zpráva byla vytvořena před 17 minutami, v 17:20 UTC
Východoseverovýchodní vítr 11 kt
Teplota 3°C
Vlhkost vzduchu 70%
Tlak 1027 hPa
Viditelnost 10 km a více
Žádná oblačnost pod 1500 m, nevyskytují se cumulonimby.

METAR: EDDM 171720Z 07011KT CAVOK 03/M02 Q1027 NOSIG

Čas: 18:37 (17:37 UTC)

Předpověď počasí

Zpráva byla vytvořena před 6 hodinami a 37 minutami, v 11:00 UTC
Předpověď platná od 17 v 12 UTC do 18 v 18 UTC
Východoseverovýchodní vítr 15 kt s nárazy do 25 kt
Viditelnost 10 km a více
Žádná oblačnost pod 1500 m, nevyskytují se cumulonimby.
Změna
od 17 v 14 UTC do 17 v 16 UTC
Východoseverovýchodní vítr 10 kt
Změna
od 18 v 15 UTC do 18 v 17 UTC
Východoseverovýchodní vítr 5 kt

TAF: EDDM 171100Z 1712/1818 07015G25KT CAVOK BECMG 1714/1716 07010KT BECMG 1815/1817 06005KT

Stav a předpovědi počasí z více než 4 000 letišť (zprávy METAR a TAF).

Červené a žluté tečky na mapě představují dostupné meteorologické stanice.

Když kurzor umístíte na tečku, zobrazí se název stanice.

Pak kliknutím zobrazíte stav a předpověď počasí.

Chcete-li změnit mapu, kliknutím na zelené tlačítko se znaménkem +mapu přiblížíte, kliknutím na zelené tlačítko se znaménkem – mapu oddálíte a kliknutím na zelené šipky přejdete na sousední mapy.


METAR-TAF: